Time;durP1;ratioP1;P1;durP2;ratioP2;P2;SDS_P1;SDS_P2;PMS_P1;PMS_P2;Temp;Humidity;BMP_temperature;BMP_pressure;BME280_temperature;BME280_humidity;BME280_pressure;Samples;Min_cycle;Max_cycle;Signal;HPM_P1;HPM_P2
2022/05/23 00:02:18;;;;;;;0.50;0.50;;;13.30;99.90;;;;;;5016205;28;20037;-72
2022/05/23 00:04:45;;;;;;;0.50;0.50;;;13.30;99.90;;;;;;5016460;28;20041;-73
2022/05/23 00:07:32;;;;;;;0.40;0.40;;;13.30;99.90;;;;;;5016258;28;20052;-74
2022/05/23 00:09:59;;;;;;;0.40;0.40;;;13.30;99.90;;;;;;5015956;28;20041;-74
2022/05/23 00:12:25;;;;;;;0.52;0.50;;;13.20;99.90;;;;;;5015940;28;20045;-72
2022/05/23 00:14:51;;;;;;;0.40;0.40;;;13.20;99.90;;;;;;5015836;28;20042;-75
2022/05/23 00:17:17;;;;;;;0.40;0.40;;;13.20;99.90;;;;;;5016573;28;20390;-74
2022/05/23 00:19:43;;;;;;;0.50;0.50;;;13.20;99.90;;;;;;5015314;28;20049;-74
2022/05/23 00:22:09;;;;;;;0.50;0.50;;;13.20;99.90;;;;;;5015579;28;20124;-74
2022/05/23 00:24:35;;;;;;;0.73;0.73;;;13.10;99.90;;;;;;4998011;28;20458;-74
2022/05/23 00:27:01;;;;;;;2.75;0.63;;;13.10;99.90;;;;;;4998542;28;20104;-73
2022/05/23 00:29:27;;;;;;;0.40;0.40;;;13.10;99.90;;;;;;5015929;28;20112;-72
2022/05/23 00:37:22;;;;;;;0.40;0.40;;;12.90;99.90;;;;;;5015476;28;20050;-74
2022/05/23 00:39:48;;;;;;;0.68;0.68;;;12.90;99.90;;;;;;5015471;28;20109;-72
2022/05/23 00:45:04;;;;;;;0.50;0.50;;;12.80;99.90;;;;;;5015779;28;20449;-74
2022/05/23 00:47:33;;;;;;;0.50;0.50;;;12.70;99.90;;;;;;5015410;28;20064;-74
2022/05/23 00:49:59;;;;;;;0.40;0.40;;;12.70;99.90;;;;;;5015629;28;20049;-74
2022/05/23 00:52:32;;;;;;;0.40;0.40;;;12.70;99.90;;;;;;5015244;28;20049;-74
2022/05/23 00:55:01;;;;;;;0.60;0.60;;;12.60;99.90;;;;;;5015466;28;20132;-74
2022/05/23 00:57:38;;;;;;;0.90;0.90;;;12.60;99.90;;;;;;5007913;28;20050;-73
2022/05/23 01:00:07;;;;;;;0.50;0.50;;;12.60;99.90;;;;;;5015471;28;20053;-73
2022/05/23 01:02:33;;;;;;;0.50;0.50;;;12.60;99.90;;;;;;5015260;28;20042;-73
2022/05/23 01:04:59;;;;;;;0.80;0.80;;;12.50;99.90;;;;;;5015332;28;20034;-75
2022/05/23 01:07:25;;;;;;;0.40;0.40;;;12.50;99.90;;;;;;5015319;28;20457;-74
2022/05/23 01:09:51;;;;;;;0.50;0.50;;;12.50;99.90;;;;;;5015175;28;20057;-73
2022/05/23 01:12:17;;;;;;;0.50;0.50;;;12.50;99.90;;;;;;4997722;28;20049;-73
2022/05/23 01:14:52;;;;;;;0.60;0.60;;;12.50;99.90;;;;;;4997578;28;20516;-74
2022/05/23 01:17:19;;;;;;;0.63;0.63;;;12.40;99.90;;;;;;4997680;28;20054;-73
2022/05/23 01:19:45;;;;;;;0.57;0.57;;;12.40;99.90;;;;;;5015563;28;20124;-73
2022/05/23 01:22:49;;;;;;;0.55;0.55;;;12.40;99.90;;;;;;5014765;28;20142;-74
2022/05/23 01:25:21;;;;;;;0.45;0.45;;;12.30;99.90;;;;;;5011584;28;20115;-74
2022/05/23 01:27:47;;;;;;;0.70;0.70;;;12.30;99.90;;;;;;5015046;28;20049;-74
2022/05/23 01:30:14;;;;;;;0.57;0.57;;;12.20;99.90;;;;;;5014146;28;20049;-73
2022/05/23 01:32:40;;;;;;;0.40;0.40;;;12.20;99.90;;;;;;5001824;28;20057;-74
2022/05/23 01:35:07;;;;;;;0.40;0.40;;;12.10;99.90;;;;;;5019092;28;20045;-74
2022/05/23 01:37:33;;;;;;;0.40;0.40;;;12.10;99.90;;;;;;5016658;28;20089;-74
2022/05/23 01:39:58;;;;;;;0.55;0.55;;;12.10;99.90;;;;;;5018570;28;20096;-73
2022/05/23 01:42:24;;;;;;;0.40;0.40;;;12.00;99.90;;;;;;5018871;28;20103;-74
2022/05/23 01:44:49;;;;;;;0.40;0.40;;;12.10;99.90;;;;;;5019070;28;20042;-73
2022/05/23 01:47:18;;;;;;;1.00;0.98;;;12.00;99.90;;;;;;5018115;28;20053;-73
2022/05/23 01:49:44;;;;;;;0.60;0.60;;;12.00;99.90;;;;;;5018697;28;20046;-74
2022/05/23 01:52:10;;;;;;;0.60;0.60;;;11.90;99.90;;;;;;5018649;28;20461;-73
2022/05/23 01:54:37;;;;;;;0.55;0.55;;;11.90;99.90;;;;;;4984897;28;20054;-73
2022/05/23 01:57:04;;;;;;;0.50;0.50;;;11.90;99.90;;;;;;5000746;28;20042;-75
2022/05/23 02:02:15;;;;;;;0.50;0.50;;;11.90;99.90;;;;;;5018125;28;20046;-73
2022/05/23 02:04:41;;;;;;;2.50;1.83;;;11.90;99.90;;;;;;5018601;28;20339;-73
2022/05/23 02:07:06;;;;;;;0.70;0.70;;;12.00;99.90;;;;;;5018323;28;20045;-74
2022/05/23 02:09:33;;;;;;;0.47;0.47;;;12.00;99.90;;;;;;5001416;28;20046;-74
2022/05/23 02:11:59;;;;;;;0.60;0.60;;;12.00;99.90;;;;;;5018350;28;20049;-72
2022/05/23 02:14:24;;;;;;;0.50;0.50;;;12.10;99.90;;;;;;5018429;28;20116;-73
2022/05/23 02:16:50;;;;;;;0.40;0.40;;;12.10;99.90;;;;;;5017864;28;20041;-75
2022/05/23 02:19:16;;;;;;;0.50;0.50;;;12.20;99.90;;;;;;5000717;28;20054;-73
2022/05/23 02:21:42;;;;;;;0.70;0.70;;;12.20;99.90;;;;;;5018077;28;20473;-74
2022/05/23 02:24:07;;;;;;;0.93;0.75;;;12.30;99.90;;;;;;5018608;28;20130;-73
2022/05/23 02:26:34;;;;;;;0.68;0.68;;;12.30;99.90;;;;;;5017840;28;20454;-73
2022/05/23 02:29:00;;;;;;;1.13;0.75;;;12.30;99.90;;;;;;5018270;28;20052;-73
2022/05/23 02:31:27;;;;;;;0.57;0.57;;;12.30;99.90;;;;;;5017931;28;20109;-73
2022/05/23 02:33:53;;;;;;;0.73;0.65;;;12.30;99.90;;;;;;5000624;28;20057;-74
2022/05/23 02:36:19;;;;;;;0.63;0.63;;;12.40;99.90;;;;;;5000549;28;20050;-74
2022/05/23 02:38:44;;;;;;;0.52;0.52;;;12.30;99.90;;;;;;5017801;28;20142;-72
2022/05/23 02:41:10;;;;;;;0.52;0.52;;;12.40;99.90;;;;;;4999430;28;20144;-73
2022/05/23 02:43:36;;;;;;;0.57;0.57;;;12.40;99.90;;;;;;5017816;28;20065;-74
2022/05/23 02:46:01;;;;;;;0.80;0.80;;;12.40;99.90;;;;;;4999981;28;20158;-73
2022/05/23 02:48:27;;;;;;;0.52;0.52;;;12.50;99.90;;;;;;5000302;28;20124;-73
2022/05/23 02:50:52;;;;;;;0.75;0.68;;;12.40;99.90;;;;;;5000347;28;20132;-73
2022/05/23 02:53:18;;;;;;;0.50;0.50;;;12.40;99.90;;;;;;5017605;28;20389;-73
2022/05/23 02:55:44;;;;;;;1.58;1.48;;;12.40;99.90;;;;;;5017589;28;20042;-75
2022/05/23 02:58:10;;;;;;;0.63;0.60;;;12.50;99.90;;;;;;5017614;28;20048;-73
2022/05/23 03:00:37;;;;;;;0.65;0.65;;;12.40;99.90;;;;;;5017263;28;20470;-73
2022/05/23 03:03:04;;;;;;;18.10;0.82;;;12.50;99.90;;;;;;5017245;28;20041;-74
2022/05/23 03:05:32;;;;;;;0.60;0.60;;;12.40;99.90;;;;;;5017544;28;20406;-73
2022/05/23 03:07:58;;;;;;;0.50;0.50;;;12.40;99.90;;;;;;5000344;28;20056;-73
2022/05/23 03:10:25;;;;;;;0.40;0.40;;;12.40;99.90;;;;;;5017041;28;20490;-74
2022/05/23 03:12:51;;;;;;;0.60;0.60;;;12.40;99.90;;;;;;4999857;28;20053;-73
2022/05/23 03:15:16;;;;;;;0.63;0.63;;;12.50;99.90;;;;;;4997672;28;20137;-74
2022/05/23 03:17:42;;;;;;;0.40;0.40;;;12.40;99.90;;;;;;4983292;28;20615;-75
2022/05/23 03:20:09;;;;;;;0.57;0.50;;;12.40;99.90;;;;;;5016983;28;20362;-75
2022/05/23 03:28:03;;;;;;;0.50;0.50;;;12.40;99.90;;;;;;4999050;28;20045;-74
2022/05/23 03:30:29;;;;;;;0.95;0.80;;;12.40;99.90;;;;;;4998658;28;20050;-73
2022/05/23 03:32:57;;;;;;;0.77;0.77;;;12.40;99.90;;;;;;5016586;28;20085;-73
2022/05/23 03:35:23;;;;;;;0.45;0.45;;;12.40;99.90;;;;;;5017038;28;20065;-73
2022/05/23 03:37:49;;;;;;;0.55;0.55;;;12.40;99.90;;;;;;4999441;28;20427;-74
2022/05/23 03:40:15;;;;;;;0.45;0.45;;;12.40;99.90;;;;;;5017572;28;20061;-73
2022/05/23 03:42:41;;;;;;;0.75;0.75;;;12.40;99.90;;;;;;5016625;28;20129;-74
2022/05/23 03:45:08;;;;;;;0.55;0.55;;;12.40;99.90;;;;;;5016173;28;20078;-74
2022/05/23 03:47:33;;;;;;;0.60;0.50;;;12.40;99.90;;;;;;5016298;28;20477;-73
2022/05/23 03:49:59;;;;;;;0.85;0.85;;;12.40;99.90;;;;;;5016367;28;20049;-73
2022/05/23 03:52:24;;;;;;;1.05;0.95;;;12.40;99.90;;;;;;5016543;28;20046;-73
2022/05/23 03:54:50;;;;;;;0.50;0.50;;;12.40;99.90;;;;;;5016635;28;20477;-75
2022/05/23 03:57:16;;;;;;;3.60;1.00;;;12.40;99.90;;;;;;5016277;28;20056;-73
2022/05/23 03:59:42;;;;;;;0.75;0.75;;;12.40;99.90;;;;;;5017894;28;20048;-74
2022/05/23 04:02:08;;;;;;;0.50;0.50;;;12.40;99.90;;;;;;5019717;28;20033;-73
2022/05/23 04:04:33;;;;;;;0.70;0.70;;;12.50;99.90;;;;;;5015604;28;20482;-74
2022/05/23 04:07:05;;;;;;;0.50;0.50;;;12.50;99.90;;;;;;5015046;28;20046;-73
2022/05/23 04:09:30;;;;;;;0.63;0.63;;;12.50;99.90;;;;;;5016065;28;20046;-73
2022/05/23 04:11:57;;;;;;;0.52;0.52;;;12.50;99.90;;;;;;5015481;28;20272;-72
2022/05/23 04:14:25;;;;;;;1.33;0.88;;;12.50;99.90;;;;;;5016148;28;20046;-72
2022/05/23 04:16:52;;;;;;;0.40;0.40;;;12.50;99.90;;;;;;4998471;28;20103;-73
2022/05/23 04:19:18;;;;;;;0.68;0.60;;;12.50;99.90;;;;;;5016212;28;20046;-73
2022/05/23 04:21:45;;;;;;;0.50;0.50;;;12.50;99.90;;;;;;5015900;28;20046;-73
2022/05/23 04:24:13;;;;;;;0.50;0.50;;;12.60;99.90;;;;;;5015619;28;20053;-75
2022/05/23 04:26:39;;;;;;;0.50;0.50;;;12.50;99.90;;;;;;5015298;28;20050;-74
2022/05/23 04:29:08;;;;;;;0.85;0.85;;;12.60;99.90;;;;;;5014913;28;20382;-75
2022/05/23 04:31:35;;;;;;;0.75;0.75;;;12.70;99.90;;;;;;4998326;28;20050;-74
2022/05/23 04:36:44;;;;;;;0.50;0.50;;;12.80;99.90;;;;;;5017614;28;20042;-73
2022/05/23 04:39:10;;;;;;;0.63;0.63;;;12.80;99.90;;;;;;5010985;28;20065;-73
2022/05/23 04:41:36;;;;;;;2.78;0.82;;;12.90;99.90;;;;;;5015287;28;20049;-74
2022/05/23 04:44:02;;;;;;;0.73;0.63;;;12.90;99.90;;;;;;5015413;28;20128;-73
2022/05/23 04:46:28;;;;;;;0.50;0.50;;;13.00;99.90;;;;;;5012508;28;20129;-75
2022/05/23 04:51:39;;;;;;;0.50;0.50;;;13.10;99.90;;;;;;5015556;28;20049;-73
2022/05/23 04:54:07;;;;;;;0.50;0.50;;;13.10;99.90;;;;;;5015381;28;20050;-74
2022/05/23 04:56:33;;;;;;;1.13;0.95;;;13.10;99.90;;;;;;5015324;28;20046;-74
2022/05/23 04:58:59;;;;;;;0.60;0.60;;;13.10;99.90;;;;;;5015042;28;20377;-73
2022/05/23 05:01:26;;;;;;;0.73;0.63;;;13.20;99.90;;;;;;5015307;28;20056;-73
2022/05/23 05:03:53;;;;;;;1.45;0.88;;;13.20;99.90;;;;;;5014506;28;20042;-74
2022/05/23 05:06:21;;;;;;;0.40;0.40;;;13.40;99.90;;;;;;5015033;28;20100;-73
2022/05/23 05:08:47;;;;;;;0.60;0.60;;;13.50;99.90;;;;;;5015040;28;20046;-73
2022/05/23 05:11:13;;;;;;;0.60;0.60;;;13.50;99.90;;;;;;5015427;28;20045;-74
2022/05/23 05:13:39;;;;;;;0.50;0.50;;;13.70;99.90;;;;;;5014983;28;20529;-74
2022/05/23 05:16:06;;;;;;;0.65;0.65;;;14.10;99.90;;;;;;5014975;28;20354;-74
2022/05/23 05:18:33;;;;;;;0.50;0.50;;;14.90;99.90;;;;;;5014731;28;20052;-75
2022/05/23 05:21:04;;;;;;;0.60;0.60;;;15.70;99.90;;;;;;5014370;28;20105;-75
2022/05/23 05:23:29;;;;;;;0.80;0.80;;;16.20;99.90;;;;;;4997824;28;20068;-74
2022/05/23 05:25:55;;;;;;;0.88;0.70;;;16.20;99.90;;;;;;5014385;28;20050;-74
2022/05/23 05:28:20;;;;;;;2.03;1.85;;;16.10;99.90;;;;;;5015073;28;20056;-70
2022/05/23 05:30:56;;;;;;;0.82;0.82;;;16.10;99.90;;;;;;5012240;28;20056;-72
2022/05/23 05:33:29;;;;;;;5.10;0.68;;;16.10;99.90;;;;;;5015220;28;20042;-72
2022/05/23 05:36:02;;;;;;;0.50;0.50;;;16.00;99.90;;;;;;5014512;28;20046;-74
2022/05/23 05:38:36;;;;;;;0.60;0.60;;;16.10;99.90;;;;;;5015095;28;20350;-73
2022/05/23 05:41:12;;;;;;;0.85;0.73;;;16.30;99.90;;;;;;5015001;28;20057;-75
2022/05/23 05:43:43;;;;;;;0.73;0.57;;;16.50;99.90;;;;;;5014842;28;20092;-74
2022/05/23 05:46:16;;;;;;;0.50;0.50;;;16.90;99.90;;;;;;5015134;28;20037;-74
2022/05/23 05:48:46;;;;;;;0.98;0.90;;;17.40;99.90;;;;;;4997413;28;20049;-73
2022/05/23 05:51:15;;;;;;;0.75;0.60;;;17.80;99.90;;;;;;5014164;28;20044;-75
2022/05/23 05:53:41;;;;;;;0.57;0.40;;;18.30;99.90;;;;;;5014609;28;20045;-74
2022/05/23 05:56:09;;;;;;;21.23;1.05;;;18.70;99.90;;;;;;5014622;28;20125;-77
2022/05/23 05:58:35;;;;;;;0.55;0.52;;;18.80;99.90;;;;;;5014759;28;20041;-76
2022/05/23 06:01:01;;;;;;;0.85;0.82;;;19.00;99.90;;;;;;5013748;28;20366;-75
2022/05/23 06:03:27;;;;;;;3.22;1.30;;;19.10;99.90;;;;;;5014162;28;20125;-76
2022/05/23 06:11:24;;;;;;;1.15;0.52;;;19.20;99.90;;;;;;5014672;28;20060;-73
2022/05/23 06:13:51;;;;;;;0.40;0.40;;;19.30;99.90;;;;;;5014819;28;20453;-72
2022/05/23 06:16:18;;;;;;;0.38;0.38;;;19.50;99.90;;;;;;4999373;28;20125;-73
2022/05/23 06:18:44;;;;;;;0.57;0.57;;;19.90;99.90;;;;;;5001315;28;20522;-72
2022/05/23 06:21:09;;;;;;;0.68;0.60;;;20.40;99.90;;;;;;5017861;28;20126;-71
2022/05/23 06:23:39;;;;;;;0.85;0.47;;;20.90;99.90;;;;;;5016784;28;20048;-76
2022/05/23 06:26:05;;;;;;;0.93;0.82;;;21.80;99.90;;;;;;5015895;28;20050;-70
2022/05/23 06:28:31;;;;;;;0.30;0.30;;;22.00;99.90;;;;;;5016934;28;20046;-72
2022/05/23 06:30:57;;;;;;;0.90;0.70;;;22.50;99.80;;;;;;5016691;28;20054;-71
2022/05/23 06:33:24;;;;;;;0.55;0.50;;;21.90;99.00;;;;;;5014037;28;20050;-72
2022/05/23 06:35:50;;;;;;;0.40;0.40;;;21.60;99.60;;;;;;5016797;28;20046;-70
2022/05/23 06:38:16;;;;;;;0.57;0.47;;;21.30;99.90;;;;;;5016519;28;20076;-71
2022/05/23 06:40:42;;;;;;;0.45;0.45;;;21.10;99.90;;;;;;5016754;28;20536;-72
2022/05/23 06:43:08;;;;;;;0.80;0.80;;;21.30;99.90;;;;;;5016825;28;20045;-69
2022/05/23 06:45:35;;;;;;;0.73;0.73;;;21.00;99.90;;;;;;5016860;28;20049;-70
2022/05/23 06:48:01;;;;;;;0.40;0.40;;;20.60;99.90;;;;;;4999901;28;20470;-73
2022/05/23 06:50:27;;;;;;;0.63;0.40;;;20.20;99.90;;;;;;4999349;28;20054;-72
2022/05/23 06:52:52;;;;;;;0.50;0.50;;;19.90;99.90;;;;;;5011099;28;20041;-72
2022/05/23 06:55:18;;;;;;;0.60;0.60;;;19.80;99.90;;;;;;5016475;28;20367;-72
2022/05/23 06:57:43;;;;;;;1.23;0.52;;;19.60;99.90;;;;;;5017081;28;20050;-71
2022/05/23 07:00:10;;;;;;;0.57;0.57;;;19.60;99.90;;;;;;4998698;28;20058;-73
2022/05/23 07:02:37;;;;;;;0.55;0.55;;;19.60;99.90;;;;;;5016586;28;20425;-73
2022/05/23 07:13:16;;;;;;;0.32;0.32;;;20.60;99.90;;;;;;5016206;28;20046;-71
2022/05/23 07:15:47;;;;;;;0.30;0.30;;;20.80;99.90;;;;;;5016390;28;20128;-71
2022/05/23 07:18:17;;;;;;;0.95;0.60;;;21.10;99.90;;;;;;5016258;28;20053;-71
2022/05/23 07:20:44;;;;;;;0.20;0.20;;;21.30;99.90;;;;;;5012288;28;20042;-71
2022/05/23 07:23:11;;;;;;;0.32;0.30;;;21.40;99.90;;;;;;5004296;28;20041;-72
2022/05/23 07:25:37;;;;;;;1.17;0.57;;;21.20;99.90;;;;;;5015772;28;20528;-72
2022/05/23 07:28:04;;;;;;;1.88;0.68;;;21.20;99.90;;;;;;5015529;28;20041;-72
2022/05/23 07:30:29;;;;;;;0.93;0.50;;;21.30;99.90;;;;;;5015999;28;20098;-73
2022/05/23 07:32:57;;;;;;;0.22;0.22;;;21.50;99.90;;;;;;5013370;28;20613;-72
2022/05/23 07:35:24;;;;;;;0.50;0.50;;;21.70;99.90;;;;;;5016311;28;20088;-73
2022/05/23 07:37:49;;;;;;;0.40;0.40;;;22.10;99.90;;;;;;5012917;28;20092;-71
2022/05/23 07:40:16;;;;;;;1.15;1.10;;;22.20;99.90;;;;;;5016840;28;20435;-73
2022/05/23 07:42:42;;;;;;;0.40;0.40;;;22.20;99.90;;;;;;5016024;28;20117;-71
2022/05/23 07:45:08;;;;;;;0.85;0.55;;;22.40;99.90;;;;;;5016463;28;20124;-72
2022/05/23 07:47:34;;;;;;;0.30;0.30;;;22.70;99.90;;;;;;4999062;28;20457;-76
2022/05/23 07:50:00;;;;;;;0.47;0.38;;;23.20;99.90;;;;;;5016126;28;20034;-75
2022/05/23 07:52:26;;;;;;;0.40;0.40;;;23.40;99.90;;;;;;5015665;28;20381;-74
2022/05/23 08:02:53;;;;;;;0.88;0.73;;;24.30;98.20;;;;;;4979416;28;20089;-75
2022/05/23 08:05:19;;;;;;;11.57;0.55;;;24.60;99.00;;;;;;5009562;28;20074;-75
2022/05/23 08:07:46;;;;;;;0.35;0.35;;;25.40;98.70;;;;;;4998414;28;20042;-75
2022/05/23 08:10:12;;;;;;;0.38;0.30;;;26.00;97.50;;;;;;5016183;28;20099;-75
2022/05/23 08:12:38;;;;;;;1.02;0.50;;;26.70;96.90;;;;;;4998228;28;20462;-73
2022/05/23 08:15:04;;;;;;;0.65;0.57;;;26.90;95.70;;;;;;5016141;28;20422;-73
2022/05/23 08:17:30;;;;;;;0.47;0.47;;;26.50;94.40;;;;;;5016080;28;20077;-74
2022/05/23 08:19:56;;;;;;;0.45;0.45;;;26.00;94.50;;;;;;5012575;28;20046;-74
2022/05/23 08:22:22;;;;;;;0.28;0.25;;;25.80;94.90;;;;;;5015400;28;20076;-76
2022/05/23 08:24:48;;;;;;;0.55;0.50;;;25.30;95.00;;;;;;5013058;28;20053;-74
2022/05/23 08:27:14;;;;;;;0.22;0.22;;;25.40;95.30;;;;;;5015410;28;20458;-72
2022/05/23 08:29:40;;;;;;;0.30;0.30;;;25.50;95.10;;;;;;5015169;28;20046;-72
2022/05/23 08:32:07;;;;;;;0.65;0.35;;;25.80;95.70;;;;;;5015582;28;20046;-72
2022/05/23 08:34:33;;;;;;;0.38;0.38;;;25.50;94.60;;;;;;5012336;28;20124;-72
2022/05/23 08:36:58;;;;;;;0.43;0.32;;;25.60;94.50;;;;;;5015528;28;20088;-74
2022/05/23 08:39:25;;;;;;;0.20;0.20;;;25.50;94.80;;;;;;5014483;28;20056;-73
2022/05/23 08:41:53;;;;;;;0.43;0.43;;;25.50;94.50;;;;;;5015905;28;20077;-74
2022/05/23 08:44:36;;;;;;;0.20;0.20;;;25.60;95.60;;;;;;5014627;28;20462;-73
2022/05/23 08:47:13;;;;;;;0.50;0.50;;;25.70;95.00;;;;;;5015462;28;20092;-73
2022/05/23 08:49:43;;;;;;;0.60;0.38;;;25.40;94.90;;;;;;4998236;28;20086;-75
2022/05/23 08:52:20;;;;;;;3.30;1.75;;;25.60;96.00;;;;;;5015442;28;20060;-72
2022/05/23 08:55:01;;;;;;;0.10;0.10;;;25.90;95.80;;;;;;5014865;28;20193;-73
2022/05/23 08:57:39;;;;;;;0.98;0.60;;;26.30;95.50;;;;;;5014881;28;20085;-73
2022/05/23 09:00:14;;;;;;;0.20;0.20;;;26.90;95.30;;;;;;4997155;28;20046;-73
2022/05/23 09:02:53;;;;;;;1.00;0.65;;;27.10;93.40;;;;;;5015640;28;20042;-75
2022/05/23 09:05:23;;;;;;;0.20;0.10;;;27.20;92.90;;;;;;5014877;28;20049;-73
2022/05/23 09:07:54;;;;;;;0.52;0.40;;;27.40;93.10;;;;;;4997365;28;20125;-75
2022/05/23 09:10:58;;;;;;;0.20;0.20;;;27.20;92.40;;;;;;5015124;28;20403;-72
2022/05/23 09:13:27;;;;;;;0.20;0.20;;;27.20;93.90;;;;;;4955060;28;20066;-74
2022/05/23 09:15:56;;;;;;;0.20;0.20;;;27.10;92.20;;;;;;5013896;28;20424;-73
2022/05/23 09:18:25;;;;;;;0.20;0.20;;;27.00;92.50;;;;;;4998391;28;20042;-72
2022/05/23 09:20:54;;;;;;;0.40;0.35;;;26.70;91.70;;;;;;5014935;28;20038;-74
2022/05/23 09:23:33;;;;;;;0.30;0.30;;;26.20;92.80;;;;;;5015243;28;20046;-74
2022/05/23 09:26:02;;;;;;;0.30;0.30;;;25.90;92.20;;;;;;4999239;28;20049;-73
2022/05/23 09:28:28;;;;;;;0.30;0.30;;;25.80;93.50;;;;;;5014794;28;20129;-73
2022/05/23 09:30:58;;;;;;;0.32;0.20;;;25.40;93.50;;;;;;5014519;28;20129;-72
2022/05/23 09:33:27;;;;;;;0.47;0.30;;;25.40;94.00;;;;;;5014615;28;20056;-74
2022/05/23 09:36:10;;;;;;;0.85;0.40;;;25.50;94.00;;;;;;5014632;28;20473;-73
2022/05/23 09:38:55;;;;;;;0.82;0.80;;;25.60;94.80;;;;;;5014433;28;20069;-73
2022/05/23 09:41:27;;;;;;;0.30;0.28;;;25.80;94.10;;;;;;5013071;28;20050;-74
2022/05/23 09:49:46;;;;;;;0.47;0.45;;;25.80;93.30;;;;;;5014492;28;20057;-75
2022/05/23 09:52:31;;;;;;;0.45;0.32;;;25.70;93.40;;;;;;5018523;28;20045;-75
2022/05/23 09:55:04;;;;;;;0.40;0.40;;;25.50;92.80;;;;;;5018723;28;20108;-75
2022/05/23 09:57:36;;;;;;;1.65;0.50;;;25.20;93.50;;;;;;5018380;28;20407;-74
2022/05/23 10:00:05;;;;;;;0.30;0.30;;;25.10;93.10;;;;;;5018066;28;20446;-75
2022/05/23 10:02:40;;;;;;;0.98;0.57;;;25.30;93.40;;;;;;5018618;28;20077;-74
2022/05/23 10:05:24;;;;;;;0.20;0.20;;;25.20;92.70;;;;;;5018011;28;20053;-75
2022/05/23 10:07:56;;;;;;;0.38;0.38;;;25.20;94.30;;;;;;5017900;28;20046;-77
2022/05/23 10:10:27;;;;;;;0.50;0.50;;;25.40;93.80;;;;;;5018004;28;20057;-75
2022/05/23 10:13:30;;;;;;;0.10;0.10;;;25.50;95.80;;;;;;5018469;28;20092;-75
2022/05/23 10:16:00;;;;;;;0.20;0.20;;;25.70;94.20;;;;;;5018177;28;20121;-74
2022/05/23 10:18:31;;;;;;;0.50;0.40;;;25.60;93.00;;;;;;5017940;28;20100;-74
2022/05/23 10:20:58;;;;;;;0.43;0.28;;;25.60;93.40;;;;;;5015355;28;20479;-75
2022/05/23 10:23:33;;;;;;;0.25;0.25;;;25.60;91.80;;;;;;5018696;28;20060;-75
2022/05/23 10:26:20;;;;;;;0.20;0.20;;;25.50;92.10;;;;;;5018125;28;20096;-75
2022/05/23 10:29:14;;;;;;;0.68;0.40;;;25.50;92.80;;;;;;4984140;28;20057;-75
2022/05/23 10:31:48;;;;;;;0.52;0.52;;;25.70;92.40;;;;;;5017821;28;20053;-74
2022/05/23 10:34:35;;;;;;;0.40;0.40;;;25.70;92.30;;;;;;5000142;28;20473;-76
2022/05/23 10:37:05;;;;;;;0.20;0.20;;;25.80;91.60;;;;;;5017619;28;20050;-75
2022/05/23 10:42:35;;;;;;;0.10;0.10;;;26.20;93.50;;;;;;5017916;28;20046;-75
2022/05/23 10:45:25;;;;;;;0.38;0.30;;;26.50;89.90;;;;;;5017584;28;20446;-75
2022/05/23 10:48:10;;;;;;;0.20;0.20;;;26.70;89.90;;;;;;5017097;28;20111;-75
2022/05/23 10:50:56;;;;;;;0.20;0.20;;;26.50;89.40;;;;;;5017178;28;20057;-74
2022/05/23 10:53:34;;;;;;;0.20;0.20;;;26.50;88.90;;;;;;5000612;28;20104;-76
2022/05/23 10:56:38;;;;;;;0.22;0.22;;;26.50;89.20;;;;;;5017513;28;20079;-75
2022/05/23 10:59:09;;;;;;;0.38;0.20;;;26.60;90.70;;;;;;5017376;28;20081;-76
2022/05/23 11:01:43;;;;;;;0.20;0.20;;;26.60;90.30;;;;;;4999794;28;20112;-74
2022/05/23 11:04:30;;;;;;;0.15;0.10;;;26.90;89.40;;;;;;5016596;28;20038;-74
2022/05/23 11:07:24;;;;;;;0.10;0.10;;;26.90;88.30;;;;;;4999703;28;20148;-74
2022/05/23 11:10:08;;;;;;;0.20;0.20;;;26.90;90.10;;;;;;5017328;28;20077;-74
2022/05/23 11:12:49;;;;;;;0.10;0.10;;;27.00;88.80;;;;;;5000030;28;20108;-76
2022/05/23 11:15:49;;;;;;;0.32;0.30;;;26.70;88.40;;;;;;5016684;28;20042;-75
2022/05/23 11:18:52;;;;;;;0.22;0.22;;;26.70;90.30;;;;;;4999380;28;20468;-74
2022/05/23 11:21:38;;;;;;;;;;;27.00;90.40;;;;;;5016984;28;20050;-75
2022/05/23 11:24:14;;;;;;;0.20;0.20;;;27.20;88.30;;;;;;5016823;28;19971;-73
2022/05/23 11:26:49;;;;;;;0.40;0.38;;;27.10;88.90;;;;;;5014707;28;20058;-71
2022/05/23 11:35:03;;;;;;;0.50;0.50;;;26.30;86.70;;;;;;4999473;28;20053;-73
2022/05/23 11:37:43;;;;;;;0.17;0.17;;;26.40;88.40;;;;;;5016211;28;20054;-73
2022/05/23 11:40:26;;;;;;;0.35;0.30;;;26.40;89.00;;;;;;4995994;28;20054;-72
2022/05/23 11:43:07;;;;;;;0.38;0.28;;;26.50;88.90;;;;;;5016500;28;20181;-72
2022/05/23 11:45:57;;;;;;;0.25;0.25;;;26.40;88.70;;;;;;5016519;28;20046;-73
2022/05/23 11:48:56;;;;;;;0.43;0.40;;;26.40;89.00;;;;;;5016636;28;20065;-73
2022/05/23 11:51:26;;;;;;;0.28;0.28;;;26.70;87.80;;;;;;4994079;28;20050;-72
2022/05/23 11:54:01;;;;;;;0.45;0.45;;;27.00;85.70;;;;;;5016134;28;20395;-72
2022/05/23 11:56:47;;;;;;;0.38;0.38;;;26.90;84.90;;;;;;4999209;28;20060;-72
2022/05/23 11:59:32;;;;;;;0.20;0.20;;;27.00;85.60;;;;;;5016141;28;20372;-73
2022/05/23 12:02:08;;;;;;;0.10;0.10;;;26.90;84.00;;;;;;5016055;28;20046;-71
2022/05/23 12:04:48;;;;;;;0.70;0.45;;;27.00;86.40;;;;;;4998321;28;20121;-74
2022/05/23 12:07:56;;;;;;;0.10;0.10;;;27.00;83.80;;;;;;5015943;28;20108;-73
2022/05/23 12:10:25;;;;;;;0.60;0.57;;;26.90;87.00;;;;;;5016159;28;20366;-72
2022/05/23 12:12:53;;;;;;;0.25;0.25;;;26.90;86.40;;;;;;4998920;28;20049;-73
2022/05/23 12:15:43;;;;;;;0.25;0.25;;;26.80;83.60;;;;;;5015264;28;20501;-72
2022/05/23 12:18:28;;;;;;;0.30;0.25;;;26.80;85.60;;;;;;5015914;28;20180;-69
2022/05/23 12:20:59;;;;;;;0.30;0.30;;;26.70;86.50;;;;;;5015912;28;20092;-70
2022/05/23 12:23:45;;;;;;;0.35;0.30;;;26.80;85.90;;;;;;4998361;28;20060;-71
2022/05/23 12:26:10;;;;;;;0.50;0.40;;;26.70;88.10;;;;;;5015457;28;20492;-71
2022/05/23 12:29:07;;;;;;;1.08;0.93;;;26.80;84.80;;;;;;5015420;28;20128;-71
2022/05/23 12:31:54;;;;;;;0.20;0.20;;;27.20;87.00;;;;;;4965274;28;20130;-69
2022/05/23 12:34:20;;;;;;;0.55;0.50;;;27.30;86.50;;;;;;5013315;28;20057;-71
2022/05/23 12:36:51;;;;;;;0.22;0.20;;;27.40;84.00;;;;;;5015624;28;20045;-71
2022/05/23 12:39:49;;;;;;;3.40;1.10;;;27.40;84.70;;;;;;5014901;28;20496;-69
2022/05/23 12:42:25;;;;;;;1.00;1.00;;;27.50;84.10;;;;;;5015362;28;20049;-71
2022/05/23 12:45:48;;;;;;;0.43;0.30;;;27.40;83.50;;;;;;5015289;28;20045;-71
2022/05/23 12:48:16;;;;;;;0.20;0.20;;;27.20;84.60;;;;;;4935749;29;20489;-72
2022/05/23 12:50:50;;;;;;;0.20;0.20;;;27.30;86.60;;;;;;4940845;29;20050;-73
2022/05/23 12:53:37;;;;;;;1.95;1.17;;;27.20;86.30;;;;;;4992662;28;20394;-71
2022/05/23 12:56:24;;;;;;;4.70;1.02;;;27.20;87.20;;;;;;5014744;28;20041;-72
2022/05/23 12:59:28;;;;;;;0.30;0.30;;;27.20;86.00;;;;;;5015218;28;20061;-73
2022/05/23 13:01:59;;;;;;;0.10;0.10;;;27.10;87.40;;;;;;4935618;29;20190;-73
2022/05/23 13:04:48;;;;;;;0.10;0.10;;;26.90;86.50;;;;;;5013966;28;20065;-72
2022/05/23 13:07:22;;;;;;;4.03;0.63;;;27.00;86.30;;;;;;5024902;28;20102;-71
2022/05/23 13:09:52;;;;;;;0.57;0.40;;;27.00;85.10;;;;;;5020432;28;20120;-72
2022/05/23 13:12:30;;;;;;;0.17;0.17;;;27.10;85.00;;;;;;5015233;28;20136;-73
2022/05/23 13:15:00;;;;;;;0.20;0.20;;;27.20;85.90;;;;;;5014631;28;20514;-73
2022/05/23 13:17:29;;;;;;;0.22;0.22;;;27.30;85.30;;;;;;5014766;28;20065;-72
2022/05/23 13:22:53;;;;;;;0.10;0.10;;;27.40;85.60;;;;;;4971262;28;20045;-73
2022/05/23 13:25:27;;;;;;;0.93;0.68;;;27.40;85.50;;;;;;5014193;28;20370;-73
2022/05/23 13:27:58;;;;;;;0.25;0.25;;;27.40;87.30;;;;;;4997134;28;20077;-73
2022/05/23 13:30:34;;;;;;;0.22;0.22;;;27.30;86.30;;;;;;5014665;28;20128;-72
2022/05/23 13:33:11;;;;;;;0.10;0.10;;;27.10;85.90;;;;;;5014448;28;20045;-72
2022/05/23 13:35:38;;;;;;;0.98;0.63;;;26.80;86.60;;;;;;5015290;28;20121;-72
2022/05/23 13:38:21;;;;;;;0.20;0.20;;;26.80;85.50;;;;;;5014759;28;20129;-75
2022/05/23 13:40:53;;;;;;;0.35;0.35;;;26.60;87.90;;;;;;5014799;28;20100;-69
2022/05/23 13:43:21;;;;;;;0.40;0.30;;;26.40;90.10;;;;;;5021143;28;20422;-70
2022/05/23 13:46:11;;;;;;;0.55;0.30;;;26.30;89.80;;;;;;5006727;28;20037;-72
2022/05/23 13:48:45;;;;;;;0.35;0.35;;;26.10;91.00;;;;;;4973696;28;20073;-73
2022/05/23 13:51:19;;;;;;;0.30;0.30;;;25.90;90.90;;;;;;5013291;28;20136;-72
2022/05/23 13:54:09;;;;;;;0.38;0.38;;;25.80;90.90;;;;;;5025755;28;20468;-71
2022/05/23 13:56:38;;;;;;;0.68;0.60;;;25.70;91.20;;;;;;5024919;28;20116;-69
2022/05/23 13:59:09;;;;;;;0.20;0.20;;;25.60;90.80;;;;;;5024120;28;20065;-70
2022/05/23 14:01:38;;;;;;;0.17;0.17;;;25.50;92.30;;;;;;5004816;28;20052;-69
2022/05/23 14:04:09;;;;;;;0.98;0.43;;;25.60;92.40;;;;;;5024733;28;20125;-70
2022/05/23 14:06:56;;;;;;;0.93;0.93;;;25.50;91.00;;;;;;5026774;28;20536;-71
2022/05/23 14:09:22;;;;;;;0.85;0.45;;;25.40;91.10;;;;;;5009347;28;20482;-70
2022/05/23 14:12:05;;;;;;;0.60;0.35;;;25.60;91.50;;;;;;5022666;28;20101;-70